createdAt,value
2019-01-12T00:00:45.330Z,101934.80
2019-01-12T00:03:16.898Z,101933.02
2019-01-12T00:05:46.864Z,101941.28
2019-01-12T00:08:17.118Z,101936.89
2019-01-12T00:10:47.015Z,101938.34
2019-01-12T00:13:17.046Z,101938.20
2019-01-12T00:15:46.889Z,101936.56
2019-01-12T00:18:17.729Z,101937.42
2019-01-12T00:20:47.940Z,101931.25
2019-01-12T00:23:17.887Z,101936.96
2019-01-12T00:25:47.748Z,101934.27
2019-01-12T00:28:17.706Z,101932.63
2019-01-12T00:30:47.661Z,101931.95
2019-01-12T00:33:17.869Z,101933.65
2019-01-12T00:35:47.817Z,101928.41
2019-01-12T00:38:17.788Z,101931.42
2019-01-12T00:40:48.040Z,101932.02
2019-01-12T00:43:17.877Z,101923.36
2019-01-12T00:45:48.463Z,101925.59
2019-01-12T00:48:18.407Z,101922.83
2019-01-12T00:50:49.567Z,101927.09
2019-01-12T00:53:19.574Z,101919.81
2019-01-12T00:55:50.689Z,101926.24
2019-01-12T00:58:21.111Z,101917.59
2019-01-12T01:00:51.032Z,101919.22
2019-01-12T01:03:20.974Z,101920.14
2019-01-12T01:05:51.210Z,101922.38
2019-01-12T01:08:21.152Z,101918.37
2019-01-12T01:10:51.095Z,101911.42
2019-01-12T01:13:23.960Z,101915.22
2019-01-12T01:15:54.047Z,101910.89
2019-01-12T01:18:23.904Z,101910.89
2019-01-12T01:20:54.122Z,101907.48
2019-01-12T01:23:24.144Z,101915.81
2019-01-12T01:25:54.184Z,101911.03
2019-01-12T01:28:24.380Z,101912.80
2019-01-12T01:30:54.296Z,101919.88
2019-01-12T01:33:27.872Z,101925.06
2019-01-12T01:35:55.794Z,101920.27
2019-01-12T01:38:25.908Z,101925.98
2019-01-12T01:40:55.827Z,101920.48
2019-01-12T01:43:26.120Z,101913.45
2019-01-12T01:45:56.167Z,101920.02
2019-01-12T01:48:25.972Z,101924.94
2019-01-12T01:50:56.173Z,101922.70
2019-01-12T01:53:26.116Z,101926.25
2019-01-12T01:55:55.982Z,101924.15
2019-01-12T01:58:25.845Z,101919.36
2019-01-12T02:00:55.749Z,101918.91
2019-01-12T02:03:26.922Z,101919.46
2019-01-12T02:05:56.858Z,101924.15
2019-01-12T02:08:26.868Z,101919.86
2019-01-12T02:10:57.082Z,101922.54
2019-01-12T02:13:27.023Z,101917.75
2019-01-12T02:15:57.264Z,101913.75
2019-01-12T02:18:27.525Z,101907.95
2019-01-12T02:20:57.509Z,101909.82
2019-01-12T02:23:27.480Z,101907.56
2019-01-12T02:25:57.597Z,101906.64
2019-01-12T02:28:27.823Z,101909.66
2019-01-12T02:30:58.034Z,101909.27
2019-01-12T02:33:27.958Z,101906.25
2019-01-12T02:35:57.909Z,101901.50
2019-01-12T02:38:27.839Z,101901.50
2019-01-12T02:40:57.767Z,101900.94
2019-01-12T02:43:27.559Z,101901.50
2019-01-12T02:45:57.486Z,101900.55
2019-01-12T02:48:27.579Z,101910.51
2019-01-12T02:50:57.801Z,101894.77
2019-01-12T02:53:27.738Z,101897.00
2019-01-12T02:55:57.669Z,101887.30
2019-01-12T02:58:27.522Z,101887.07
2019-01-12T03:00:57.498Z,101876.58
2019-01-12T03:03:27.435Z,101873.17
2019-01-12T03:05:57.589Z,101873.56
2019-01-12T03:08:27.520Z,101874.02
2019-01-12T03:10:57.828Z,101874.95
2019-01-12T03:13:27.688Z,101875.27
2019-01-12T03:15:57.999Z,101874.23
2019-01-12T03:18:28.207Z,101870.30
2019-01-12T03:20:58.172Z,101863.87
2019-01-12T03:23:28.090Z,101865.70
2019-01-12T03:25:58.130Z,101870.42
2019-01-12T03:28:28.399Z,101861.77
2019-01-12T03:30:58.218Z,101861.31
2019-01-12T03:33:28.160Z,101862.69
2019-01-12T03:35:58.096Z,101852.07
2019-01-12T03:38:28.047Z,101846.56
2019-01-12T03:40:59.054Z,101841.78
2019-01-12T03:43:28.916Z,101836.47
2019-01-12T03:45:59.408Z,101839.87
2019-01-12T03:48:29.823Z,101833.46
2019-01-12T03:50:59.685Z,101836.93
2019-01-12T03:53:29.630Z,101838.70
2019-01-12T03:55:59.727Z,101835.86
2019-01-12T03:58:29.601Z,101839.16
2019-01-12T04:01:00.114Z,101850.27
2019-01-12T04:03:30.064Z,101829.50
2019-01-12T04:05:59.997Z,101833.37
2019-01-12T04:08:29.921Z,101832.05
2019-01-12T04:10:59.852Z,101829.96
2019-01-12T04:13:30.050Z,101830.88
2019-01-12T04:16:00.016Z,101829.11
2019-01-12T04:18:29.874Z,101819.67
2019-01-12T04:21:00.131Z,101830.95
2019-01-12T04:23:30.018Z,101819.02
2019-01-12T04:25:59.864Z,101821.31
2019-01-12T04:28:29.744Z,101828.33
2019-01-12T04:30:59.615Z,101822.36
2019-01-12T04:33:29.487Z,101820.59
2019-01-12T04:35:59.363Z,101820.66
2019-01-12T04:38:29.291Z,101818.59
2019-01-12T04:40:59.173Z,101819.34
2019-01-12T04:43:29.272Z,101814.73
2019-01-12T04:45:59.072Z,101821.67
2019-01-12T04:48:29.904Z,101813.95
2019-01-12T04:50:59.878Z,101820.95
2019-01-12T04:53:30.158Z,101813.09
2019-01-12T04:56:01.317Z,101821.88
2019-01-12T04:58:31.118Z,101824.04
2019-01-12T05:01:01.328Z,101818.47
2019-01-12T05:03:31.249Z,101818.73
2019-01-12T05:06:01.529Z,101820.04
2019-01-12T05:08:31.696Z,101818.86
2019-01-12T05:11:01.637Z,101812.31
2019-01-12T05:13:31.640Z,101809.43
2019-01-12T05:16:01.531Z,101818.73
2019-01-12T05:18:31.309Z,101822.27
2019-01-12T05:21:01.594Z,101817.95
2019-01-12T05:23:32.515Z,101812.25
2019-01-12T05:26:02.460Z,101819.26
2019-01-12T05:28:32.375Z,101815.91
2019-01-12T05:31:02.324Z,101813.23
2019-01-12T05:33:32.177Z,101819.78
2019-01-12T05:36:01.967Z,101816.24
2019-01-12T05:38:32.205Z,101816.56
2019-01-12T05:41:02.137Z,101823.58
2019-01-12T05:43:32.035Z,101828.04
2019-01-12T05:46:02.292Z,101826.59
2019-01-12T05:48:32.161Z,101818.73
2019-01-12T05:51:02.735Z,101828.30
2019-01-12T05:53:32.603Z,101821.22
2019-01-12T05:56:02.538Z,101819.39
2019-01-12T05:58:32.902Z,101817.69
2019-01-12T06:01:03.120Z,101815.00
2019-01-12T06:03:33.049Z,101819.26
2019-01-12T06:06:02.977Z,101821.09
2019-01-12T06:08:33.300Z,101821.94
2019-01-12T06:11:03.166Z,101823.71
2019-01-12T06:13:33.644Z,101815.45
2019-01-12T06:16:03.586Z,101822.86
2019-01-12T06:18:33.507Z,101822.41
2019-01-12T06:21:03.400Z,101837.27
2019-01-12T06:23:33.618Z,101825.61
2019-01-12T06:26:04.143Z,101818.34
2019-01-12T06:28:34.093Z,101810.12
2019-01-12T06:31:04.157Z,101809.66
2019-01-12T06:33:34.110Z,101799.64
2019-01-12T06:36:04.043Z,101805.63
2019-01-12T06:38:35.267Z,101794.09
2019-01-12T06:41:06.332Z,101787.48
2019-01-12T06:43:36.319Z,101789.11
2019-01-12T06:46:06.290Z,101793.05
2019-01-12T06:48:36.120Z,101783.16
2019-01-12T06:51:06.191Z,101780.86
2019-01-12T06:53:36.507Z,101774.77
2019-01-12T06:56:10.848Z,101775.16
2019-01-12T06:58:38.024Z,101777.71
2019-01-12T07:01:07.982Z,101769.33
2019-01-12T07:03:37.855Z,101762.63
2019-01-12T07:06:08.647Z,101758.84
2019-01-12T07:08:38.859Z,101759.23
2019-01-12T07:11:09.059Z,101752.81
2019-01-12T07:13:38.965Z,101753.73
2019-01-12T07:16:08.908Z,101751.11
2019-01-12T07:18:38.891Z,101755.44
2019-01-12T07:21:09.077Z,101747.77
2019-01-12T07:23:38.931Z,101760.67
2019-01-12T07:26:08.881Z,101757.02
2019-01-12T07:28:38.854Z,101747.59
2019-01-12T07:31:08.799Z,101751.91
2019-01-12T07:33:39.006Z,101749.91
2019-01-12T07:36:08.853Z,101749.98
2019-01-12T07:38:39.833Z,101737.86
2019-01-12T07:41:09.691Z,101743.89
2019-01-12T07:43:40.160Z,101749.06
2019-01-12T07:46:10.063Z,101753.91
2019-01-12T07:48:39.951Z,101738.84
2019-01-12T07:51:09.808Z,101740.69
2019-01-12T07:53:39.756Z,101732.30
2019-01-12T07:56:09.782Z,101726.27
2019-01-12T07:58:39.720Z,101722.34
2019-01-12T08:01:09.577Z,101729.88
2019-01-12T08:03:39.827Z,101723.66
2019-01-12T08:06:09.764Z,101708.47
2019-01-12T08:08:39.696Z,101701.45
2019-01-12T08:11:09.644Z,101703.55
2019-01-12T08:13:39.791Z,101697.39
2019-01-12T08:16:10.055Z,101695.09
2019-01-12T08:18:40.238Z,101687.09
2019-01-12T08:21:11.071Z,101687.31
2019-01-12T08:23:41.203Z,101680.02
2019-01-12T08:26:11.410Z,101672.16
2019-01-12T08:28:41.676Z,101669.92
2019-01-12T08:31:11.559Z,101670.84
2019-01-12T08:33:41.421Z,101658.73
2019-01-12T08:36:11.351Z,101659.19
2019-01-12T08:38:41.593Z,101655.58
2019-01-12T08:41:11.531Z,101654.42
2019-01-12T08:43:41.394Z,101656.26
2019-01-12T08:46:11.322Z,101645.70
2019-01-12T08:48:42.225Z,101636.78
2019-01-12T08:51:12.177Z,101634.09
2019-01-12T08:53:42.378Z,101628.31
2019-01-12T08:56:12.313Z,101635.12
2019-01-12T08:58:42.177Z,101639.73
2019-01-12T09:01:13.930Z,101648.05
2019-01-12T09:03:44.383Z,101663.64
2019-01-12T09:06:14.489Z,101673.59
2019-01-12T09:08:45.105Z,101675.82
2019-01-12T09:11:15.031Z,101658.00
2019-01-12T09:13:45.515Z,101643.20
2019-01-12T09:16:15.435Z,101634.80
2019-01-12T09:18:45.314Z,101628.64
2019-01-12T09:21:15.282Z,101626.55
2019-01-12T09:23:45.477Z,101619.61
2019-01-12T09:26:15.515Z,101618.08
2019-01-12T09:28:45.441Z,101621.30
2019-01-12T09:31:15.737Z,101608.80
2019-01-12T09:33:45.671Z,101595.16
2019-01-12T09:36:15.926Z,101599.41
2019-01-12T09:38:45.853Z,101597.18
2019-01-12T09:41:15.790Z,101590.23
2019-01-12T09:43:45.753Z,101604.20
2019-01-12T09:46:15.620Z,101599.73
2019-01-12T09:48:45.584Z,101594.95
2019-01-12T09:51:15.541Z,101599.27
2019-01-12T09:53:45.477Z,101598.49
2019-01-12T09:56:15.424Z,101593.10
2019-01-12T09:58:45.282Z,101594.80
2019-01-12T10:01:15.320Z,101590.66
2019-01-12T10:03:45.945Z,101584.77
2019-01-12T10:06:15.898Z,101572.44
2019-01-12T10:08:46.967Z,101573.28
2019-01-12T10:11:16.915Z,101555.78
2019-01-12T10:13:47.052Z,101555.78
2019-01-12T10:16:17.003Z,101556.63
2019-01-12T10:18:46.899Z,101553.54
2019-01-12T10:21:16.854Z,101547.06
2019-01-12T10:23:46.841Z,101534.41
2019-01-12T10:26:16.779Z,101534.95
2019-01-12T10:28:46.637Z,101526.94
2019-01-12T10:31:16.488Z,101510.28
2019-01-12T10:33:46.671Z,101513.83
2019-01-12T10:36:16.558Z,101502.80
2019-01-12T10:38:46.503Z,101500.17
2019-01-12T10:41:16.484Z,101506.34
2019-01-12T10:43:46.352Z,101502.03
2019-01-12T10:46:16.537Z,101484.98
2019-01-12T10:48:46.908Z,101491.54
2019-01-12T10:51:17.865Z,101499.80
2019-01-12T10:53:48.135Z,101494.55
2019-01-12T10:56:18.070Z,101487.91
2019-01-12T10:58:48.299Z,101490.39
2019-01-12T11:01:18.239Z,101489.08
2019-01-12T11:03:48.209Z,101480.36
2019-01-12T11:06:18.179Z,101473.80
2019-01-12T11:08:48.203Z,101461.08
2019-01-12T11:11:18.137Z,101457.80
2019-01-12T11:13:48.781Z,101454.26
2019-01-12T11:16:18.747Z,101440.22
2019-01-12T11:18:48.737Z,101446.78
2019-01-12T11:21:18.892Z,101446.54
2019-01-12T11:23:48.770Z,101436.05
2019-01-12T11:26:18.813Z,101443.37
2019-01-12T11:28:49.217Z,101422.02
2019-01-12T11:31:19.941Z,101413.60
2019-01-12T11:33:50.074Z,101419.23
2019-01-12T11:36:20.017Z,101420.55
2019-01-12T11:38:49.886Z,101419.61
2019-01-12T11:41:19.823Z,101411.20
2019-01-12T11:43:49.707Z,101397.24
2019-01-12T11:46:19.640Z,101404.27
2019-01-12T11:48:49.502Z,101391.61
2019-01-12T11:51:19.482Z,101390.61
2019-01-12T11:53:49.404Z,101395.28
2019-01-12T11:56:19.451Z,101380.30
2019-01-12T11:58:49.313Z,101375.52
2019-01-12T12:01:19.313Z,101373.83
2019-01-12T12:03:49.244Z,101353.31
2019-01-12T12:06:19.197Z,101356.13
2019-01-12T12:08:49.054Z,101354.67
2019-01-12T12:11:19.179Z,101353.52
2019-01-12T12:13:50.012Z,101330.00
2019-01-12T12:16:19.971Z,101329.43
2019-01-12T12:18:49.876Z,101315.94
2019-01-12T12:21:19.776Z,101322.66
2019-01-12T12:23:50.001Z,101302.98
2019-01-12T12:26:20.011Z,101300.36
2019-01-12T12:28:49.862Z,101298.42
2019-01-12T12:31:19.800Z,101287.64
2019-01-12T12:33:49.690Z,101277.15
2019-01-12T12:36:19.939Z,101273.38
2019-01-12T12:38:50.177Z,101273.63
2019-01-12T12:41:20.410Z,101252.27
2019-01-12T12:43:50.288Z,101233.06
2019-01-12T12:46:21.931Z,101237.93
2019-01-12T12:48:52.068Z,101231.57
2019-01-12T12:51:22.324Z,101234.66
2019-01-12T12:53:52.630Z,101218.55
2019-01-12T12:56:22.559Z,101213.47
2019-01-12T12:58:52.420Z,101221.25
2019-01-12T13:01:22.741Z,101210.93
2019-01-12T13:03:53.247Z,101212.24
2019-01-12T13:06:24.065Z,101192.58
2019-01-12T13:08:54.301Z,101207.77
2019-01-12T13:11:24.174Z,101195.42
2019-01-12T13:13:54.296Z,101173.60
2019-01-12T13:16:25.407Z,101179.61
2019-01-12T13:18:55.277Z,101166.42
2019-01-12T13:21:25.523Z,101175.59
2019-01-12T13:23:55.473Z,101166.42
2019-01-12T13:26:25.411Z,101157.51
2019-01-12T13:28:55.274Z,101158.44
2019-01-12T13:31:26.694Z,101152.38
2019-01-12T13:33:58.202Z,101146.01
2019-01-12T13:36:28.149Z,101136.45
2019-01-12T13:38:57.935Z,101137.59
2019-01-12T13:41:27.798Z,101143.30
2019-01-12T13:43:58.028Z,101130.58
2019-01-12T13:46:28.019Z,101123.94
2019-01-12T13:48:57.958Z,101117.76
2019-01-12T13:51:27.803Z,101122.92
2019-01-12T13:53:57.761Z,101115.05
2019-01-12T13:56:27.564Z,101110.48
2019-01-12T13:58:57.411Z,101124.91
2019-01-12T14:01:27.337Z,101107.66
2019-01-12T14:03:57.193Z,101118.14
2019-01-12T14:06:27.128Z,101102.32
2019-01-12T14:08:57.062Z,101093.06
2019-01-12T14:11:26.928Z,101090.35
2019-01-12T14:13:57.044Z,101081.81
2019-01-12T14:16:26.976Z,101090.98
2019-01-12T14:18:56.823Z,101091.37
2019-01-12T14:21:27.061Z,101090.06
2019-01-12T14:23:57.099Z,101089.50
2019-01-12T14:26:27.071Z,101092.97
2019-01-12T14:28:56.969Z,101076.39
2019-01-12T14:31:26.925Z,101097.38
2019-01-12T14:33:57.230Z,101079.57
2019-01-12T14:36:27.435Z,101084.34
2019-01-12T14:38:57.208Z,101087.34
2019-01-12T14:41:27.203Z,101081.27
2019-01-12T14:43:57.083Z,101072.38
2019-01-12T14:46:27.011Z,101075.38
2019-01-12T14:48:56.894Z,101070.33
2019-01-12T14:51:27.078Z,101065.00
2019-01-12T14:53:58.647Z,101065.55
2019-01-12T14:56:34.866Z,101061.24
2019-01-12T14:59:04.964Z,101050.66
2019-01-12T15:01:35.255Z,101051.89
2019-01-12T15:04:05.428Z,101047.36
2019-01-12T15:06:35.366Z,101042.88
2019-01-12T15:09:08.361Z,101046.34
2019-01-12T15:11:38.799Z,101058.61
2019-01-12T15:14:09.605Z,101043.81
2019-01-12T15:16:39.483Z,101047.27
2019-01-12T15:19:09.364Z,101049.90
2019-01-12T15:21:39.321Z,101052.81
2019-01-12T15:24:10.199Z,101047.09
2019-01-12T15:26:40.248Z,101047.09
2019-01-12T15:29:10.085Z,101037.36
2019-01-12T15:31:40.011Z,101043.83
2019-01-12T15:34:09.913Z,101050.21
2019-01-12T15:36:40.214Z,101031.94
2019-01-12T15:39:10.433Z,101034.09
2019-01-12T15:41:41.016Z,101030.63
2019-01-12T15:44:11.099Z,101026.60
2019-01-12T15:46:41.002Z,101029.98
2019-01-12T15:49:10.991Z,101027.73
2019-01-12T15:51:41.000Z,101028.08
2019-01-12T15:54:10.858Z,101042.16
2019-01-12T15:56:41.116Z,101020.67
2019-01-12T15:59:11.086Z,101017.96
2019-01-12T16:01:41.021Z,101014.41
2019-01-12T16:04:10.908Z,101008.78
2019-01-12T16:06:40.678Z,101010.37
2019-01-12T16:09:10.626Z,101006.35
2019-01-12T16:11:40.663Z,100998.19
2019-01-12T16:14:10.604Z,100991.17
2019-01-12T16:16:40.566Z,100982.36
2019-01-12T16:19:10.487Z,100988.08
2019-01-12T16:21:40.776Z,100987.61
2019-01-12T16:24:10.671Z,100990.98
2019-01-12T16:26:40.651Z,100985.73
2019-01-12T16:29:10.601Z,100983.31
2019-01-12T16:31:40.768Z,100980.31
2019-01-12T16:34:10.892Z,100972.81
2019-01-12T16:36:40.769Z,100971.50
2019-01-12T16:39:11.081Z,100968.87
2019-01-12T16:41:41.320Z,100964.00
2019-01-12T16:44:11.153Z,100965.69
2019-01-12T16:46:41.525Z,100971.09
2019-01-12T16:49:11.372Z,100969.31
2019-01-12T16:51:41.154Z,100963.13
2019-01-12T16:54:10.934Z,100963.23
2019-01-12T16:56:40.881Z,100973.72
2019-01-12T16:59:10.751Z,100971.66
2019-01-12T17:01:40.860Z,100965.58
2019-01-12T17:04:10.716Z,100961.45
2019-01-12T17:06:40.903Z,100978.69
2019-01-12T17:09:11.168Z,100971.66
2019-01-12T17:11:41.346Z,100961.55
2019-01-12T17:14:12.662Z,100969.79
2019-01-12T17:16:42.622Z,100965.66
2019-01-12T17:19:12.484Z,100963.80
2019-01-12T17:21:42.271Z,100955.33
2019-01-12T17:24:12.210Z,100943.52
2019-01-12T17:26:42.200Z,100946.89
2019-01-12T17:29:17.667Z,100948.42
2019-01-12T17:31:43.704Z,100941.48
2019-01-12T17:34:13.723Z,100933.80
2019-01-12T17:36:43.912Z,100925.73
2019-01-12T17:39:14.173Z,100923.11
2019-01-12T17:41:44.048Z,100926.30
2019-01-12T17:44:13.912Z,100918.99
2019-01-12T17:46:43.693Z,100922.36
2019-01-12T17:49:13.645Z,100919.64
2019-01-12T17:51:43.693Z,100920.48
2019-01-12T17:54:13.621Z,100914.86
2019-01-12T17:56:43.569Z,100919.27
2019-01-12T17:59:13.423Z,100924.05
2019-01-12T18:01:43.365Z,100925.36
2019-01-12T18:04:13.236Z,100921.11
2019-01-12T18:06:44.583Z,100919.33
2019-01-12T18:09:14.456Z,100920.86
2019-01-12T18:11:44.319Z,100916.42
2019-01-12T18:14:14.935Z,100922.17
2019-01-12T18:16:44.800Z,100914.17
2019-01-12T18:19:14.671Z,100922.17
2019-01-12T18:21:44.553Z,100930.39
2019-01-12T18:24:15.002Z,100925.83
2019-01-12T18:26:44.872Z,100927.98
2019-01-12T18:29:15.039Z,100937.92
2019-01-12T18:31:44.990Z,100934.17
2019-01-12T18:34:14.928Z,100934.33
2019-01-12T18:36:44.825Z,100928.36
2019-01-12T18:39:14.794Z,100930.30
2019-01-12T18:41:44.641Z,100936.95
2019-01-12T18:44:14.626Z,100940.33
2019-01-12T18:46:44.573Z,100942.20
2019-01-12T18:49:14.507Z,100925.89
2019-01-12T18:51:45.517Z,100932.73
2019-01-12T18:54:15.967Z,100939.86
2019-01-12T18:56:46.314Z,100939.02
2019-01-12T18:59:16.246Z,100947.36
2019-01-12T19:01:46.613Z,100943.52
2019-01-12T19:04:16.776Z,100933.77
2019-01-12T19:06:46.929Z,100939.23
2019-01-12T19:09:16.873Z,100937.42
2019-01-12T19:11:46.810Z,100946.73
2019-01-12T19:14:16.660Z,100937.73
2019-01-12T19:16:46.782Z,100943.92
2019-01-12T19:19:16.715Z,100941.77
2019-01-12T19:21:46.563Z,100937.17
2019-01-12T19:24:16.338Z,100940.73
2019-01-12T19:26:46.260Z,100933.52
2019-01-12T19:29:16.107Z,100937.92
2019-01-12T19:31:46.036Z,100929.33
2019-01-12T19:34:15.999Z,100930.64
2019-01-12T19:36:46.191Z,100925.77
2019-01-12T19:39:15.966Z,100915.15
2019-01-12T19:41:45.761Z,100915.24
2019-01-12T19:44:16.089Z,100912.99
2019-01-12T19:46:45.875Z,100917.49
2019-01-12T19:49:15.730Z,100921.62
2019-01-12T19:51:45.579Z,100933.05
2019-01-12T19:54:15.433Z,100924.46
2019-01-12T19:56:45.698Z,100920.87
2019-01-12T19:59:16.606Z,100917.15
2019-01-12T20:01:46.454Z,100914.53
2019-01-12T20:04:16.785Z,100913.69
2019-01-12T20:06:46.691Z,100925.12
2019-01-12T20:09:16.612Z,100920.24
2019-01-12T20:11:46.543Z,100912.75
2019-01-12T20:14:16.437Z,100908.06
2019-01-12T20:16:46.730Z,100911.91
2019-01-12T20:19:18.336Z,100905.59
2019-01-12T20:21:48.555Z,100908.34
2019-01-12T20:24:18.498Z,100916.27
2019-01-12T20:26:48.462Z,100904.19
2019-01-12T20:29:21.177Z,100906.34
2019-01-12T20:32:26.556Z,100911.12
2019-01-12T20:35:08.588Z,100902.31
2019-01-12T20:38:02.910Z,100901.37
2019-01-12T20:40:55.566Z,100902.50
2019-01-12T20:43:58.214Z,100906.06
2019-01-12T20:46:57.036Z,100897.72
2019-01-12T20:49:34.921Z,100894.72
2019-01-12T20:52:38.741Z,100897.25
2019-01-12T20:55:51.142Z,100894.25
2019-01-12T20:58:50.748Z,100902.50
2019-01-12T21:01:59.780Z,100904.19
2019-01-12T21:05:13.532Z,100888.16
2019-01-12T21:07:57.311Z,100900.20
2019-01-12T21:10:51.736Z,100905.58
2019-01-12T21:13:50.081Z,100901.52
2019-01-12T21:16:26.267Z,100888.67
2019-01-12T21:18:56.557Z,100889.37
2019-01-12T21:21:26.742Z,100888.99
2019-01-12T21:23:56.688Z,100891.62
2019-01-12T21:26:26.604Z,100887.78
2019-01-12T21:28:56.523Z,100893.50
2019-01-12T21:31:27.209Z,100888.25
2019-01-12T21:33:57.133Z,100880.38
2019-01-12T21:36:27.074Z,100878.13
2019-01-12T21:38:57.092Z,100871.37
2019-01-12T21:41:26.968Z,100883.38
2019-01-12T21:43:56.857Z,100871.57
2019-01-12T21:46:27.209Z,100880.01
2019-01-12T21:48:57.160Z,100874.37
2019-01-12T21:51:27.123Z,100875.31
2019-01-12T21:53:57.005Z,100875.31
2019-01-12T21:56:27.302Z,100876.45
2019-01-12T21:58:57.247Z,100869.05
2019-01-12T22:01:27.173Z,100874.76
2019-01-12T22:03:57.147Z,100871.30
2019-01-12T22:06:27.455Z,100882.91
2019-01-12T22:08:57.369Z,100881.69
2019-01-12T22:11:27.491Z,100875.60
2019-01-12T22:13:57.728Z,100881.31
2019-01-12T22:16:27.587Z,100880.75
2019-01-12T22:18:57.641Z,100880.75
2019-01-12T22:21:27.688Z,100882.53
2019-01-12T22:23:57.638Z,100880.01
2019-01-12T22:26:27.646Z,100879.91
2019-01-12T22:28:57.807Z,100879.72
2019-01-12T22:31:29.046Z,100884.22
2019-01-12T22:33:58.938Z,100881.50
2019-01-12T22:36:29.242Z,100884.69
2019-01-12T22:38:59.818Z,100887.31
2019-01-12T22:41:30.343Z,100883.75
2019-01-12T22:44:00.315Z,100880.38
2019-01-12T22:46:30.279Z,100880.75
2019-01-12T22:49:00.059Z,100884.69
2019-01-12T22:51:30.311Z,100882.06
2019-01-12T22:54:00.265Z,100872.31
2019-01-12T22:56:30.196Z,100871.00
2019-01-12T22:58:59.994Z,100869.09
2019-01-12T23:01:54.921Z,100876.02
2019-01-12T23:04:27.678Z,100874.71
2019-01-12T23:06:57.591Z,100867.77
2019-01-12T23:09:27.535Z,100871.71
2019-01-12T23:11:57.506Z,100862.90
2019-01-12T23:14:27.470Z,100862.62
2019-01-12T23:16:58.025Z,100857.55
2019-01-12T23:19:28.241Z,100862.80
2019-01-12T23:21:58.542Z,100862.90
2019-01-12T23:24:28.504Z,100857.18
2019-01-12T23:26:59.018Z,100854.09
2019-01-12T23:29:29.015Z,100850.15
2019-01-12T23:31:58.873Z,100848.36
2019-01-12T23:34:29.502Z,100854.09
2019-01-12T23:36:59.432Z,100836.09
2019-01-12T23:39:29.655Z,100839.83
2019-01-12T23:41:59.579Z,100838.05
2019-01-12T23:44:29.798Z,100838.52
2019-01-12T23:47:01.162Z,100839.83
2019-01-12T23:49:30.945Z,100841.14
2019-01-12T23:52:00.889Z,100839.83
2019-01-12T23:54:30.829Z,100841.69
2019-01-12T23:57:00.876Z,100840.37
2019-01-12T23:59:30.973Z,100841.59
